Hordafor III — LLVC — position and weather

sailwx.info

Track history (hours):
 
Tides and Currents Weather Stations Pressure Air Temp Water Temp Dewpoint Dewpoint Depression Visibility Wind Speed Wind Dir Waves Ship Positions

Hordafor III

Last reported at 2014-Oct-10 23:13 UTC. Time now 2014-Oct-31 13:45 UTC.
Position N 64°48' E 011°07'.
Warning: this ship's position is 20 days out of date.

Length 50 m; draft 5.2 m.

Type: Ship. MMSI: 258044000.

Date/timePositionNaut miles runAvg speedWind from/ knotsBaromVisibWave heightAir tempDewpointWater temp
2014-Oct-10 23:13N 64°48' E 011°07'6 9.7
2014-Oct-10 22:33N 64°53' E 011°18'1010.4
2014-Oct-10 21:33N 64°59' E 011°36'1410.4
2014-Oct-10 20:10N 65°12' E 011°53'7810.2
2014-Oct-10 12:30N 66°26' E 012°59'48 9.7
2014-Oct-10 07:32N 67°07' E 014°00'1010.3
2014-Oct-10 06:33N 67°16' E 014°13'1010.5
2014-Oct-10 05:33N 67°25' E 014°27'3 0.2
2014-Oct-09 13:30N 67°28' E 014°28'1010.4
2014-Oct-09 12:33N 67°19' E 014°19'1110.4
2014-Oct-09 11:32N 67°10' E 014°04'1310.4
2014-Oct-09 10:16N 67°00' E 013°41'36 9.7
2014-Oct-09 06:33N 66°28' E 012°59'96 9.6
2014-Oct-08 20:33N 64°59' E 011°36'1010.4
2014-Oct-08 19:33N 64°52' E 011°17'  
Track history (hours):
 
Tides and Currents Weather Stations Pressure Air Temp Water Temp Dewpoint Dewpoint Depression Visibility Wind Speed Wind Dir Waves Ship Positions

Hordafor III

Last reported at 2014-Oct-10 23:13 UTC. Time now 2014-Oct-31 13:45 UTC.
Position N 64°48' E 011°07'.
Warning: this ship's position is 20 days out of date.

Length 50 m; draft 5.2 m.

Type: Ship. MMSI: 258044000.

Date/timePositionNaut miles runAvg speedWind from/ knotsBaromVisibWave heightAir tempDewpointWater temp
2014-Oct-10 23:13N 64°48' E 011°07'6 9.7
2014-Oct-10 22:33N 64°53' E 011°18'1010.4
2014-Oct-10 21:33N 64°59' E 011°36'1410.4
2014-Oct-10 20:10N 65°12' E 011°53'7810.2
2014-Oct-10 12:30N 66°26' E 012°59'48 9.7
2014-Oct-10 07:32N 67°07' E 014°00'1010.3
2014-Oct-10 06:33N 67°16' E 014°13'1010.5
2014-Oct-10 05:33N 67°25' E 014°27'3 0.2
2014-Oct-09 13:30N 67°28' E 014°28'1010.4
2014-Oct-09 12:33N 67°19' E 014°19'1110.4
2014-Oct-09 11:32N 67°10' E 014°04'1310.4
2014-Oct-09 10:16N 67°00' E 013°41'36 9.7
2014-Oct-09 06:33N 66°28' E 012°59'96 9.6
2014-Oct-08 20:33N 64°59' E 011°36'1010.4
2014-Oct-08 19:33N 64°52' E 011°17'  

Dump ship's entire track history